createdAt,value
2023-04-29T00:02:03.712Z,16.42
2023-04-29T00:04:31.882Z,16.77
2023-04-29T00:06:59.242Z,16.70
2023-04-29T00:09:29.230Z,16.73
2023-04-29T00:11:56.327Z,13.50
2023-04-29T00:14:23.241Z,15.30
2023-04-29T00:16:53.209Z,18.65
2023-04-29T00:19:21.336Z,15.98
2023-04-29T00:21:49.421Z,17.75
2023-04-29T00:24:18.048Z,17.10
2023-04-29T00:26:44.984Z,18.83
2023-04-29T00:29:12.176Z,17.63
2023-04-29T00:31:39.221Z,16.48
2023-04-29T00:34:08.229Z,19.95
2023-04-29T00:36:35.301Z,23.17
2023-04-29T00:39:04.172Z,14.65
2023-04-29T00:41:32.163Z,14.18
2023-04-29T00:43:59.301Z,16.92
2023-04-29T00:46:26.260Z,16.55
2023-04-29T00:48:54.487Z,18.42
2023-04-29T00:51:21.696Z,19.88
2023-04-29T00:53:49.765Z,16.83
2023-04-29T00:56:17.480Z,17.67
2023-04-29T00:58:50.394Z,16.17
2023-04-29T01:01:19.411Z,19.23
2023-04-29T01:03:47.791Z,19.20
2023-04-29T01:06:51.214Z,16.70
2023-04-29T01:09:31.983Z,19.02
2023-04-29T01:12:22.935Z,16.50
2023-04-29T01:15:06.916Z,16.65
2023-04-29T01:17:44.481Z,18.63
2023-04-29T01:20:15.228Z,21.15
2023-04-29T01:22:43.146Z,18.58
2023-04-29T01:25:10.139Z,16.48
2023-04-29T01:28:15.855Z,18.17
2023-04-29T01:31:24.098Z,21.40
2023-04-29T01:34:19.158Z,20.13
2023-04-29T01:37:06.468Z,19.38
2023-04-29T01:40:12.181Z,22.42
2023-04-29T01:43:00.150Z,20.75
2023-04-29T01:45:28.998Z,17.15
2023-04-29T01:47:57.619Z,18.98
2023-04-29T01:50:25.909Z,20.42
2023-04-29T01:52:54.644Z,19.10
2023-04-29T01:55:22.575Z,19.30
2023-04-29T01:58:04.519Z,18.35
2023-04-29T02:00:51.686Z,17.27
2023-04-29T02:03:20.622Z,23.92
2023-04-29T02:05:51.671Z,17.80
2023-04-29T02:08:18.952Z,16.45
2023-04-29T02:10:57.964Z,22.05
2023-04-29T02:13:37.816Z,19.45
2023-04-29T02:16:12.950Z,26.13
2023-04-29T02:19:00.168Z,22.45
2023-04-29T02:21:30.098Z,21.73
2023-04-29T02:23:57.125Z,23.65
2023-04-29T02:26:26.532Z,17.60
2023-04-29T02:28:57.334Z,19.65
2023-04-29T02:31:26.123Z,17.95
2023-04-29T02:33:54.905Z,17.92
2023-04-29T02:36:22.093Z,18.73
2023-04-29T02:38:54.650Z,21.77
2023-04-29T02:41:21.614Z,20.35
2023-04-29T02:43:50.504Z,18.80
2023-04-29T02:46:18.953Z,20.17
2023-04-29T02:48:46.156Z,21.38
2023-04-29T02:51:14.587Z,21.35
2023-04-29T02:53:42.916Z,19.77
2023-04-29T02:56:09.905Z,19.90
2023-04-29T02:58:37.821Z,22.25
2023-04-29T03:01:05.017Z,21.52
2023-04-29T03:03:32.442Z,18.73
2023-04-29T03:05:59.756Z,19.20
2023-04-29T03:08:29.298Z,22.52
2023-04-29T03:10:57.157Z,17.20
2023-04-29T03:13:25.285Z,20.50
2023-04-29T03:15:52.227Z,18.10
2023-04-29T03:18:19.222Z,18.42
2023-04-29T03:20:46.064Z,17.35
2023-04-29T03:23:12.991Z,19.83
2023-04-29T03:25:40.792Z,19.15
2023-04-29T03:28:07.987Z,22.15
2023-04-29T03:30:35.581Z,21.65
2023-04-29T03:33:02.576Z,21.33
2023-04-29T03:35:30.591Z,18.20
2023-04-29T03:38:19.638Z,18.52
2023-04-29T03:40:48.529Z,23.07
2023-04-29T03:43:17.197Z,18.13
2023-04-29T03:45:44.264Z,19.38
2023-04-29T03:48:12.543Z,19.58
2023-04-29T03:50:39.939Z,20.52
2023-04-29T03:53:07.240Z,23.65
2023-04-29T03:55:34.419Z,21.33
2023-04-29T03:58:01.819Z,22.10
2023-04-29T04:00:31.319Z,20.50
2023-04-29T04:03:02.689Z,21.83
2023-04-29T04:05:31.926Z,19.00
2023-04-29T04:08:06.375Z,18.38
2023-04-29T04:10:41.958Z,20.70
2023-04-29T04:13:26.129Z,23.58
2023-04-29T04:15:53.064Z,21.00
2023-04-29T04:18:20.164Z,20.67
2023-04-29T04:20:47.559Z,19.83
2023-04-29T04:23:14.819Z,19.38
2023-04-29T04:25:49.963Z,22.23
2023-04-29T04:28:36.048Z,21.58
2023-04-29T04:31:12.256Z,22.95
2023-04-29T04:33:43.381Z,20.13
2023-04-29T04:36:10.243Z,24.88
2023-04-29T04:38:39.717Z,19.77
2023-04-29T04:41:11.111Z,18.30
2023-04-29T04:43:41.043Z,25.63
2023-04-29T04:46:16.975Z,20.02
2023-04-29T04:48:55.184Z,24.25
2023-04-29T04:51:22.308Z,19.30
2023-04-29T04:53:49.256Z,17.50
2023-04-29T04:56:22.060Z,20.10
2023-04-29T04:58:49.733Z,21.58
2023-04-29T05:01:16.660Z,22.55
2023-04-29T05:03:44.149Z,21.75
2023-04-29T05:06:15.865Z,18.58
2023-04-29T05:08:54.836Z,22.95
2023-04-29T05:11:25.947Z,22.90
2023-04-29T05:14:09.571Z,20.63
2023-04-29T05:16:39.000Z,19.80
2023-04-29T05:19:09.775Z,17.92
2023-04-29T05:21:39.346Z,19.80
2023-04-29T05:24:08.894Z,17.25
2023-04-29T05:26:36.272Z,20.38
2023-04-29T05:29:03.178Z,25.20
2023-04-29T05:31:37.312Z,17.95
2023-04-29T05:34:07.409Z,18.13
2023-04-29T05:36:36.755Z,19.92
2023-04-29T05:39:05.230Z,17.95
2023-04-29T05:41:32.143Z,18.63
2023-04-29T05:44:19.391Z,17.95
2023-04-29T05:46:48.833Z,24.92
2023-04-29T05:49:16.451Z,17.55
2023-04-29T05:51:43.439Z,17.83
2023-04-29T05:54:10.462Z,19.20
2023-04-29T05:56:38.895Z,16.50
2023-04-29T05:59:05.768Z,20.55
2023-04-29T06:01:34.418Z,19.70
2023-04-29T06:04:01.673Z,19.63
2023-04-29T06:06:58.098Z,16.48
2023-04-29T06:09:59.017Z,20.60
2023-04-29T06:12:27.526Z,19.63
2023-04-29T06:14:54.589Z,21.60
2023-04-29T06:17:21.594Z,25.48
2023-04-29T06:19:48.437Z,19.88
2023-04-29T06:22:15.363Z,19.85
2023-04-29T06:24:50.569Z,24.52
2023-04-29T06:27:25.952Z,19.38
2023-04-29T06:29:53.277Z,24.35
2023-04-29T06:32:21.145Z,22.05
2023-04-29T06:34:48.135Z,21.38
2023-04-29T06:37:26.309Z,22.33
2023-04-29T06:40:15.545Z,22.58
2023-04-29T06:43:06.122Z,28.10
2023-04-29T06:45:51.847Z,20.58
2023-04-29T06:48:28.140Z,22.67
2023-04-29T06:50:57.306Z,26.17
2023-04-29T06:53:26.098Z,21.40
2023-04-29T06:55:53.107Z,29.55
2023-04-29T06:58:25.509Z,23.08
2023-04-29T07:00:52.741Z,19.90
2023-04-29T07:03:22.736Z,21.05
2023-04-29T07:05:50.715Z,24.15
2023-04-29T07:08:17.585Z,23.58
2023-04-29T07:10:44.457Z,22.65
2023-04-29T07:13:11.267Z,20.83
2023-04-29T07:15:38.380Z,21.58
2023-04-29T07:18:06.818Z,18.33
2023-04-29T07:20:36.966Z,20.40
2023-04-29T07:23:04.237Z,22.40
2023-04-29T07:25:31.103Z,22.88
2023-04-29T07:27:58.176Z,18.75
2023-04-29T07:30:26.435Z,22.52
2023-04-29T07:32:53.469Z,21.50
2023-04-29T07:35:21.916Z,21.42
2023-04-29T07:37:49.439Z,21.85
2023-04-29T07:40:19.402Z,20.00
2023-04-29T07:42:47.932Z,19.38
2023-04-29T07:45:15.606Z,21.23
2023-04-29T07:48:14.643Z,20.38
2023-04-29T07:50:39.486Z,26.20
2023-04-29T07:53:06.824Z,25.02
2023-04-29T07:55:33.832Z,23.73
2023-04-29T07:58:02.775Z,19.55
2023-04-29T08:00:31.567Z,23.30
2023-04-29T08:02:58.772Z,23.00
2023-04-29T08:05:28.199Z,19.13
2023-04-29T08:07:55.558Z,20.75
2023-04-29T08:10:26.274Z,18.95
2023-04-29T08:12:54.509Z,22.15
2023-04-29T08:15:23.461Z,23.80
2023-04-29T08:17:50.549Z,20.95
2023-04-29T08:20:17.567Z,17.73
2023-04-29T08:22:44.333Z,20.77
2023-04-29T08:25:11.480Z,21.95
2023-04-29T08:27:38.328Z,21.92
2023-04-29T08:30:06.177Z,22.02
2023-04-29T08:32:34.634Z,20.17
2023-04-29T08:35:01.948Z,21.77
2023-04-29T08:37:31.531Z,18.60
2023-04-29T08:39:58.297Z,17.60
2023-04-29T08:42:37.897Z,17.20
2023-04-29T08:45:05.610Z,14.57
2023-04-29T08:47:34.539Z,17.48
2023-04-29T08:50:05.934Z,22.27
2023-04-29T08:52:34.314Z,17.38
2023-04-29T08:55:05.719Z,16.35
2023-04-29T08:57:42.515Z,16.52
2023-04-29T09:00:10.916Z,16.70
2023-04-29T09:02:56.499Z,15.63
2023-04-29T09:05:24.414Z,13.15
2023-04-29T09:07:54.002Z,13.88
2023-04-29T09:10:21.405Z,14.43
2023-04-29T09:12:48.289Z,15.70
2023-04-29T09:15:15.195Z,19.50
2023-04-29T09:17:49.039Z,14.75
2023-04-29T09:20:22.343Z,17.30
2023-04-29T09:22:53.548Z,17.52
2023-04-29T09:25:21.129Z,14.50
2023-04-29T09:27:48.017Z,15.50
2023-04-29T09:30:16.678Z,14.70
2023-04-29T09:32:45.791Z,17.58
2023-04-29T09:35:27.355Z,19.23
2023-04-29T09:38:07.833Z,15.80
2023-04-29T09:40:46.590Z,15.20
2023-04-29T09:43:23.803Z,17.13
2023-04-29T09:45:50.868Z,17.80
2023-04-29T09:48:18.735Z,17.10
2023-04-29T09:50:58.850Z,13.93
2023-04-29T09:53:30.407Z,15.35
2023-04-29T09:56:02.790Z,15.93
2023-04-29T09:58:37.020Z,15.05
2023-04-29T10:01:04.984Z,16.73
2023-04-29T10:03:36.662Z,17.52
2023-04-29T10:06:05.781Z,18.45
2023-04-29T10:08:33.832Z,16.30
2023-04-29T10:11:05.940Z,20.77
2023-04-29T10:13:38.697Z,17.30
2023-04-29T10:16:31.537Z,16.50
2023-04-29T10:19:04.355Z,15.40
2023-04-29T10:21:33.827Z,16.73
2023-04-29T10:24:03.753Z,18.58
2023-04-29T10:26:32.182Z,17.23
2023-04-29T10:29:00.287Z,17.75
2023-04-29T10:31:28.689Z,21.73
2023-04-29T10:33:58.055Z,19.27
2023-04-29T10:36:28.641Z,19.05
2023-04-29T10:39:01.814Z,21.73
2023-04-29T10:41:47.280Z,19.20
2023-04-29T10:44:14.572Z,18.95
2023-04-29T10:46:41.514Z,20.30
2023-04-29T10:49:10.804Z,19.02
2023-04-29T10:51:46.851Z,21.55
2023-04-29T10:54:15.490Z,24.20
2023-04-29T10:56:46.042Z,22.73
2023-04-29T10:59:14.579Z,20.60
2023-04-29T11:01:45.488Z,22.42
2023-04-29T11:04:12.756Z,23.75
2023-04-29T11:06:41.528Z,21.95
2023-04-29T11:09:18.600Z,22.42
2023-04-29T11:11:59.305Z,19.20
2023-04-29T11:14:33.118Z,22.90
2023-04-29T11:17:03.187Z,20.55
2023-04-29T11:19:35.571Z,18.42
2023-04-29T11:22:10.284Z,18.75
2023-04-29T11:24:48.370Z,22.60
2023-04-29T11:27:16.338Z,22.90
2023-04-29T11:29:45.362Z,20.05
2023-04-29T11:32:12.424Z,21.08
2023-04-29T11:34:40.196Z,19.15
2023-04-29T11:37:07.016Z,22.05
2023-04-29T11:39:37.048Z,21.48
2023-04-29T11:42:05.414Z,20.80
2023-04-29T11:44:36.026Z,19.83
2023-04-29T11:47:04.241Z,21.80
2023-04-29T11:49:33.053Z,24.67
2023-04-29T11:52:01.506Z,19.92
2023-04-29T11:54:31.737Z,17.92
2023-04-29T11:57:04.944Z,17.65
2023-04-29T12:02:03.186Z,20.08
2023-04-29T12:04:30.605Z,22.02
2023-04-29T12:06:59.781Z,23.77
2023-04-29T12:09:26.717Z,22.77
2023-04-29T12:11:54.035Z,21.20
2023-04-29T12:14:21.182Z,21.25
2023-04-29T12:16:48.433Z,23.52
2023-04-29T12:19:15.968Z,19.73
2023-04-29T12:21:50.179Z,20.20
2023-04-29T12:24:17.264Z,27.02
2023-04-29T12:26:46.914Z,19.85
2023-04-29T12:29:14.704Z,18.15
2023-04-29T12:31:42.136Z,20.63
2023-04-29T12:34:10.316Z,19.30
2023-04-29T12:36:38.351Z,19.08
2023-04-29T12:39:10.139Z,18.95
2023-04-29T12:41:41.418Z,18.85
2023-04-29T12:44:08.785Z,19.42
2023-04-29T12:46:40.820Z,19.90
2023-04-29T12:49:09.496Z,17.58
2023-04-29T12:51:36.921Z,19.70
2023-04-29T12:54:06.372Z,19.83
2023-04-29T12:56:33.488Z,20.42
2023-04-29T12:59:10.615Z,16.35
2023-04-29T13:01:39.779Z,19.08
2023-04-29T13:04:09.337Z,18.50
2023-04-29T13:06:39.873Z,23.33
2023-04-29T13:09:17.465Z,21.15
2023-04-29T13:11:45.682Z,20.17
2023-04-29T13:14:13.750Z,17.40
2023-04-29T13:16:42.316Z,17.77
2023-04-29T13:19:29.579Z,20.15
2023-04-29T13:21:56.211Z,19.45
2023-04-29T13:24:23.124Z,18.40
2023-04-29T13:26:52.424Z,20.52
2023-04-29T13:29:21.100Z,19.10
2023-04-29T13:31:48.356Z,21.08
2023-04-29T13:34:15.818Z,18.95
2023-04-29T13:36:42.820Z,17.20
2023-04-29T13:39:10.738Z,19.40
2023-04-29T13:41:37.724Z,18.95
2023-04-29T13:44:20.659Z,19.30
2023-04-29T13:46:55.138Z,20.60
2023-04-29T13:54:57.474Z,18.90
2023-04-29T13:59:51.812Z,17.70
2023-04-29T14:02:25.943Z,16.83
2023-04-29T14:04:55.862Z,19.02
2023-04-29T14:07:24.262Z,20.98
2023-04-29T14:09:53.150Z,17.13
2023-04-29T14:12:20.677Z,17.15
2023-04-29T14:14:47.584Z,17.10
2023-04-29T14:17:14.628Z,19.65
2023-04-29T14:19:41.647Z,16.60
2023-04-29T14:22:08.784Z,16.85
2023-04-29T14:24:35.789Z,17.42
2023-04-29T14:27:03.257Z,17.58
2023-04-29T14:29:30.965Z,18.50
2023-04-29T14:31:57.871Z,20.35
2023-04-29T14:34:24.786Z,18.88
2023-04-29T14:36:52.213Z,18.40
2023-04-29T14:39:19.120Z,19.10
2023-04-29T14:41:46.860Z,19.63
2023-04-29T14:44:13.969Z,19.10
2023-04-29T14:46:42.171Z,20.77
2023-04-29T14:49:09.557Z,20.00
2023-04-29T14:51:36.507Z,21.38
2023-04-29T14:54:03.496Z,20.27
2023-04-29T14:56:30.840Z,20.00
2023-04-29T14:58:58.511Z,20.58
2023-04-29T15:01:27.907Z,21.77
2023-04-29T15:03:56.289Z,23.05
2023-04-29T15:06:23.374Z,20.15
2023-04-29T15:08:51.324Z,22.17
2023-04-29T15:11:19.598Z,22.58
2023-04-29T15:13:46.480Z,23.33
2023-04-29T15:16:15.886Z,19.63
2023-04-29T15:18:45.648Z,20.98
2023-04-29T15:21:12.874Z,21.02
2023-04-29T15:23:40.889Z,21.58
2023-04-29T15:26:08.386Z,21.45
2023-04-29T15:28:35.293Z,23.65
2023-04-29T15:31:04.740Z,21.23
2023-04-29T15:33:31.855Z,22.38
2023-04-29T15:35:59.041Z,24.25
2023-04-29T15:38:25.944Z,21.83
2023-04-29T15:40:56.967Z,26.58
2023-04-29T15:43:24.511Z,23.85
2023-04-29T15:45:51.667Z,20.70
2023-04-29T15:48:18.726Z,24.98
2023-04-29T15:50:45.774Z,20.23
2023-04-29T15:53:13.319Z,21.45
2023-04-29T15:55:40.986Z,20.27
2023-04-29T15:58:07.926Z,22.38
2023-04-29T16:00:34.682Z,21.92
2023-04-29T16:03:01.572Z,19.98
2023-04-29T16:05:29.050Z,23.55
2023-04-29T16:07:55.956Z,22.70
2023-04-29T16:10:23.551Z,23.08
2023-04-29T16:12:50.512Z,18.08
2023-04-29T16:15:17.492Z,21.48
2023-04-29T16:17:44.316Z,19.52
2023-04-29T16:20:11.801Z,19.50
2023-04-29T16:22:38.648Z,20.75
2023-04-29T16:25:07.097Z,21.80
2023-04-29T16:27:33.979Z,19.73
2023-04-29T16:30:01.553Z,23.23
2023-04-29T16:32:31.667Z,19.55
2023-04-29T16:35:00.123Z,19.30
2023-04-29T16:37:28.867Z,19.70
2023-04-29T16:39:55.967Z,18.65
2023-04-29T16:42:22.915Z,19.60
2023-04-29T16:44:50.023Z,19.48
2023-04-29T16:47:20.288Z,19.67
2023-04-29T16:49:48.077Z,21.08
2023-04-29T16:52:14.993Z,20.30
2023-04-29T16:54:42.086Z,20.73
2023-04-29T16:57:09.110Z,22.58
2023-04-29T16:59:35.942Z,20.30
2023-04-29T17:02:03.058Z,21.02
2023-04-29T17:04:31.432Z,20.48
2023-04-29T17:06:58.587Z,28.65
2023-04-29T17:09:27.419Z,21.10
2023-04-29T17:11:54.380Z,21.83
2023-04-29T17:14:21.256Z,25.13
2023-04-29T17:16:48.164Z,21.92
2023-04-29T17:19:15.112Z,22.92
2023-04-29T17:21:42.564Z,24.33
2023-04-29T17:24:09.727Z,23.05
2023-04-29T17:26:36.495Z,28.55
2023-04-29T17:29:04.156Z,28.52
2023-04-29T17:31:45.134Z,26.85
2023-04-29T17:34:19.227Z,22.90
2023-04-29T17:36:47.643Z,23.00
2023-04-29T17:39:17.069Z,22.30
2023-04-29T17:41:44.327Z,23.67
2023-04-29T17:44:11.363Z,25.33
2023-04-29T17:46:38.559Z,20.88
2023-04-29T17:49:05.881Z,23.55
2023-04-29T17:51:35.834Z,20.48
2023-04-29T17:54:07.383Z,22.70
2023-04-29T17:56:35.187Z,22.77
2023-04-29T17:59:05.177Z,22.45
2023-04-29T18:01:33.052Z,24.13
2023-04-29T18:04:00.184Z,22.77
2023-04-29T18:06:30.299Z,24.83
2023-04-29T18:08:57.800Z,25.00
2023-04-29T18:11:25.291Z,24.85
2023-04-29T18:13:54.319Z,26.48
2023-04-29T18:16:23.411Z,24.10
2023-04-29T18:18:55.996Z,26.02
2023-04-29T18:21:27.961Z,25.17
2023-04-29T18:23:58.085Z,26.05
2023-04-29T18:26:25.038Z,23.25
2023-04-29T18:28:52.062Z,26.42
2023-04-29T18:31:20.176Z,27.42
2023-04-29T18:33:47.845Z,25.52
2023-04-29T18:36:15.007Z,27.52
2023-04-29T18:38:42.154Z,26.13
2023-04-29T18:41:10.363Z,30.75
2023-04-29T18:43:37.306Z,28.23
2023-04-29T18:46:05.787Z,30.63
2023-04-29T18:48:34.300Z,28.20
2023-04-29T18:51:04.173Z,30.70
2023-04-29T18:53:31.971Z,30.08
2023-04-29T18:55:58.913Z,32.13
2023-04-29T18:58:28.403Z,32.35
2023-04-29T19:00:59.458Z,31.80
2023-04-29T19:03:27.259Z,29.75
2023-04-29T19:05:54.283Z,30.30
2023-04-29T19:08:21.499Z,34.05
2023-04-29T19:10:48.317Z,31.23
2023-04-29T19:13:16.257Z,28.60
2023-04-29T19:15:43.361Z,30.50
2023-04-29T19:18:10.413Z,32.38
2023-04-29T19:20:37.359Z,34.58
2023-04-29T19:23:04.639Z,33.08
2023-04-29T19:25:32.958Z,33.47
2023-04-29T19:28:00.121Z,32.13
2023-04-29T19:30:26.989Z,32.28
2023-04-29T19:32:54.051Z,31.50
2023-04-29T19:35:21.084Z,34.17
2023-04-29T19:37:47.984Z,27.83
2023-04-29T19:40:14.910Z,28.02
2023-04-29T19:42:41.882Z,32.70
2023-04-29T19:45:10.176Z,30.50
2023-04-29T19:47:37.072Z,29.25
2023-04-29T19:50:04.733Z,25.55
2023-04-29T19:52:31.840Z,26.65
2023-04-29T19:54:58.869Z,24.10
2023-04-29T19:57:26.191Z,24.60
2023-04-29T19:59:53.391Z,24.13
2023-04-29T20:02:20.510Z,23.30
2023-04-29T20:04:48.394Z,23.60
2023-04-29T20:07:15.592Z,21.63
2023-04-29T20:09:45.152Z,22.27
2023-04-29T20:12:12.076Z,23.55
2023-04-29T20:14:38.884Z,26.25
2023-04-29T20:17:06.286Z,23.95
2023-04-29T20:19:34.900Z,26.48
2023-04-29T20:22:01.801Z,31.30
2023-04-29T20:24:28.687Z,28.63
2023-04-29T20:26:55.752Z,28.92
2023-04-29T20:29:23.204Z,29.90
2023-04-29T20:31:50.178Z,32.67
2023-04-29T20:34:17.347Z,30.50
2023-04-29T20:36:44.240Z,33.70
2023-04-29T20:39:11.110Z,34.50
2023-04-29T20:41:38.146Z,33.90
2023-04-29T20:44:08.209Z,36.15
2023-04-29T20:46:35.515Z,38.15
2023-04-29T20:49:03.217Z,35.38
2023-04-29T20:51:30.150Z,40.03
2023-04-29T20:53:57.010Z,37.85
2023-04-29T20:56:24.831Z,38.47
2023-04-29T20:58:51.977Z,37.88
2023-04-29T21:01:21.773Z,38.53
2023-04-29T21:03:49.041Z,33.28
2023-04-29T21:06:17.660Z,33.33
2023-04-29T21:08:44.700Z,35.00
2023-04-29T21:11:11.451Z,32.85
2023-04-29T21:13:38.342Z,35.42
2023-04-29T21:16:05.456Z,40.85
2023-04-29T21:18:32.316Z,41.67
2023-04-29T21:20:59.103Z,40.60
2023-04-29T21:23:25.872Z,38.83
2023-04-29T21:25:52.720Z,42.53
2023-04-29T21:28:19.594Z,42.15
2023-04-29T21:30:46.415Z,38.30
2023-04-29T21:33:13.251Z,34.88
2023-04-29T21:35:42.353Z,34.60
2023-04-29T21:38:09.381Z,36.40
2023-04-29T21:40:41.610Z,38.05
2023-04-29T21:43:09.761Z,37.53
2023-04-29T21:45:36.703Z,34.47
2023-04-29T21:48:15.820Z,39.35
2023-04-29T21:50:43.676Z,35.13
2023-04-29T21:53:13.219Z,33.13
2023-04-29T21:55:41.847Z,36.40
2023-04-29T21:58:09.097Z,34.63
2023-04-29T22:00:41.230Z,34.63
2023-04-29T22:03:09.957Z,37.60
2023-04-29T22:05:37.516Z,34.63
2023-04-29T22:08:07.417Z,31.42
2023-04-29T22:10:34.904Z,29.25
2023-04-29T22:13:01.889Z,24.45
2023-04-29T22:15:30.043Z,21.75
2023-04-29T22:17:57.868Z,17.58
2023-04-29T22:20:25.773Z,18.83
2023-04-29T22:22:53.006Z,16.13
2023-04-29T22:25:21.744Z,15.77
2023-04-29T22:27:49.439Z,14.68
2023-04-29T22:30:17.896Z,13.63
2023-04-29T22:32:45.730Z,12.48
2023-04-29T22:35:12.683Z,13.60
2023-04-29T22:37:39.660Z,12.52
2023-04-29T22:40:07.793Z,11.63
2023-04-29T22:42:35.437Z,15.63
2023-04-29T22:45:02.659Z,13.65
2023-04-29T22:47:31.639Z,15.50
2023-04-29T22:49:58.556Z,14.05
2023-04-29T22:52:27.757Z,13.18
2023-04-29T22:54:54.710Z,12.40
2023-04-29T22:57:23.743Z,11.80
2023-04-29T22:59:55.050Z,12.55
2023-04-29T23:02:27.542Z,11.52
2023-04-29T23:04:56.059Z,11.60
2023-04-29T23:07:23.563Z,11.18
2023-04-29T23:09:51.262Z,10.23
2023-04-29T23:12:19.874Z,10.40
2023-04-29T23:14:47.112Z,13.05
2023-04-29T23:17:14.038Z,16.58
2023-04-29T23:19:40.899Z,12.93
2023-04-29T23:22:07.679Z,13.18
2023-04-29T23:24:35.718Z,13.30
2023-04-29T23:27:04.183Z,11.75
2023-04-29T23:29:34.469Z,12.68
2023-04-29T23:32:02.003Z,10.48
2023-04-29T23:34:29.148Z,9.35
2023-04-29T23:36:56.034Z,8.95
2023-04-29T23:39:23.084Z,11.93
2023-04-29T23:41:50.099Z,9.75
2023-04-29T23:44:16.974Z,9.75
2023-04-29T23:46:43.987Z,8.70
2023-04-29T23:49:10.919Z,9.13
2023-04-29T23:51:37.794Z,9.80
2023-04-29T23:54:04.654Z,9.68
2023-04-29T23:56:35.947Z,9.18
2023-04-29T23:59:02.966Z,11.43
